Time;durP1;ratioP1;P1;durP2;ratioP2;P2;SDS_P1;SDS_P2;PMS_P1;PMS_P2;Temp;Humidity;BMP_temperature;BMP_pressure;BME280_temperature;BME280_humidity;BME280_pressure;Samples;Min_cycle;Max_cycle;Signal;HPM_P1;HPM_P2
2022/08/07 00:05:21;;;;;;;13.00;11.18;;;;;;;15.59;100.00;99771.30;3942224;89;21040;-85
2022/08/07 00:11:23;;;;;;;14.87;11.93;;;;;;;15.55;100.00;99767.75;3956777;88;21070;-85
2022/08/07 00:17:24;;;;;;;14.83;12.35;;;;;;;15.50;100.00;99753.70;3967262;88;21523;-84
2022/08/07 00:23:29;;;;;;;16.23;10.78;;;;;;;15.43;100.00;99756.46;3968422;88;21052;-85
2022/08/07 00:29:30;;;;;;;13.05;10.58;;;;;;;15.35;100.00;99764.47;3971322;88;21059;-85
2022/08/07 00:35:31;;;;;;;15.05;11.55;;;;;;;15.32;100.00;99772.73;3967669;88;21139;-85
2022/08/07 00:47:53;;;;;;;11.75;10.08;;;;;;;15.27;100.00;99778.61;3966665;88;21032;-85
2022/08/07 00:53:54;;;;;;;11.57;9.68;;;;;;;15.31;100.00;99780.81;3966680;88;22187;-85
2022/08/07 00:59:56;;;;;;;9.73;8.73;;;;;;;15.28;100.00;99781.59;3966016;87;21711;-86
2022/08/07 01:05:57;;;;;;;12.07;8.10;;;;;;;15.27;100.00;99784.92;3839148;91;21079;-85
2022/08/07 01:12:11;;;;;;;13.25;10.30;;;;;;;15.27;100.00;99778.03;3915487;89;21573;-85
2022/08/07 01:18:13;;;;;;;11.12;9.30;;;;;;;15.38;100.00;99780.28;3901390;89;21093;-84
2022/08/07 01:24:17;;;;;;;10.10;8.65;;;;;;;15.36;100.00;99785.36;3883790;90;21648;-85
2022/08/07 01:30:25;;;;;;;11.55;8.75;;;;;;;15.37;100.00;99772.36;3885837;90;21661;-85
2022/08/07 01:36:28;;;;;;;11.28;8.40;;;;;;;15.36;100.00;99774.31;3887658;90;21065;-85
2022/08/07 01:42:32;;;;;;;8.70;7.58;;;;;;;15.35;100.00;99771.38;3889486;90;21571;-85
2022/08/07 01:48:37;;;;;;;10.68;8.18;;;;;;;15.39;100.00;99762.53;3895224;90;21122;-85
2022/08/07 01:54:41;;;;;;;11.20;8.68;;;;;;;15.41;100.00;99764.33;3891869;90;21057;-85
2022/08/07 02:00:56;;;;;;;10.45;8.00;;;;;;;15.40;100.00;99756.44;3815875;92;21660;-84
2022/08/07 02:06:59;;;;;;;11.73;7.60;;;;;;;15.34;100.00;99762.11;3798461;90;21154;-85
2022/08/07 02:13:03;;;;;;;9.85;7.55;;;;;;;15.37;100.00;99753.84;3820172;92;21134;-85
2022/08/07 02:19:12;;;;;;;11.50;8.98;;;;;;;15.43;100.00;99755.66;3819098;92;21126;-85
2022/08/07 02:25:17;;;;;;;11.12;9.23;;;;;;;15.52;100.00;99764.36;3917322;89;21584;-85
2022/08/07 02:31:23;;;;;;;;;;;;;;;15.58;100.00;99764.98;3832563;91;21139;-86
2022/08/07 02:37:26;;;;;;;9.25;8.20;;;;;;;15.55;100.00;99764.98;3820097;91;20536;-85
2022/08/07 02:43:30;;;;;;;9.35;8.05;;;;;;;15.56;100.00;99766.55;3816655;91;21085;-85
2022/08/07 02:49:33;;;;;;;8.53;7.67;;;;;;;15.56;100.00;99765.98;3820761;92;22034;-85
2022/08/07 02:55:48;;;;;;;;;;;;;;;15.52;100.00;99770.67;3842745;91;21171;-85
2022/08/07 03:01:52;;;;;;;8.75;7.50;;;;;;;15.54;100.00;99773.84;3824828;92;20166;-85
2022/08/07 03:07:55;;;;;;;11.48;8.75;;;;;;;15.52;100.00;99774.81;3918775;88;21123;-86
2022/08/07 03:14:06;;;;;;;10.63;8.23;;;;;;;15.54;100.00;99775.80;3965920;88;21139;-86
2022/08/07 03:20:09;;;;;;;11.68;9.15;;;;;;;15.48;100.00;99767.70;4009165;88;21104;-86
2022/08/07 03:26:14;;;;;;;11.65;8.95;;;;;;;15.46;100.00;99771.44;3949195;89;21171;-86
2022/08/07 03:32:33;;;;;;;12.55;9.03;;;;;;;15.44;100.00;99771.83;3947190;89;21110;-86
2022/08/07 03:38:36;;;;;;;12.28;8.58;;;;;;;15.42;100.00;99776.16;3944308;89;21060;-86
2022/08/07 03:44:41;;;;;;;11.55;8.55;;;;;;;15.38;100.00;99769.82;3946820;88;21070;-86
2022/08/07 03:50:44;;;;;;;10.45;8.68;;;;;;;15.29;100.00;99778.44;3935580;87;35816;-85
2022/08/07 03:56:50;;;;;;;10.68;8.68;;;;;;;15.22;100.00;99781.76;3973568;87;21149;-85
2022/08/07 04:02:52;;;;;;;12.88;7.87;;;;;;;15.22;100.00;99780.37;4001681;88;21586;-87
2022/08/07 04:08:55;;;;;;;10.55;8.85;;;;;;;15.20;100.00;99784.91;3991556;87;22137;-86
2022/08/07 04:14:58;;;;;;;12.37;8.83;;;;;;;15.17;100.00;99793.16;4004137;88;21067;-85
2022/08/07 04:21:00;;;;;;;10.48;8.40;;;;;;;15.18;100.00;99797.48;4000311;87;21023;-87
2022/08/07 04:27:03;;;;;;;9.95;8.58;;;;;;;15.17;100.00;99792.58;4010105;87;21046;-85
2022/08/07 04:33:09;;;;;;;10.80;9.10;;;;;;;15.29;100.00;99796.95;3986133;87;21114;-85
2022/08/07 04:39:13;;;;;;;12.40;9.33;;;;;;;15.32;100.00;99795.59;3936295;88;21139;-85
2022/08/07 04:45:14;;;;;;;14.18;9.33;;;;;;;15.35;100.00;99798.95;3874512;90;21098;-85
2022/08/07 04:51:40;;;;;;;8.75;7.85;;;;;;;15.35;100.00;99807.23;3875214;90;21143;-84
2022/08/07 04:57:55;;;;;;;10.53;8.13;;;;;;;15.40;100.00;99813.80;3869566;90;21197;-85
2022/08/07 05:04:43;;;;;;;10.43;6.47;;;;;;;15.47;100.00;99818.56;3858932;90;21059;-85
2022/08/07 05:10:49;;;;;;;11.12;7.25;;;;;;;15.56;100.00;99821.75;3892460;90;21679;-85
2022/08/07 05:17:00;;;;;;;8.88;7.28;;;;;;;15.63;100.00;99824.52;3999128;87;21071;-85
2022/08/07 05:23:11;;;;;;;11.05;7.08;;;;;;;15.72;100.00;99819.45;4001681;89;21027;-85
2022/08/07 05:29:16;;;;;;;9.20;7.40;;;;;;;15.84;100.00;99819.67;3999813;89;21674;-85
2022/08/07 05:35:23;;;;;;;8.38;6.42;;;;;;;15.86;100.00;99825.59;4001457;89;21059;-85
2022/08/07 05:41:25;;;;;;;12.18;7.28;;;;;;;15.94;100.00;99834.91;3994631;87;21023;-84
2022/08/07 05:47:27;;;;;;;8.93;7.12;;;;;;;16.05;100.00;99835.73;3992508;87;21111;-84
2022/08/07 05:53:29;;;;;;;6.47;5.87;;;;;;;16.11;100.00;99835.53;4066441;86;21048;-85
2022/08/07 05:59:33;;;;;;;9.10;6.85;;;;;;;16.14;100.00;99834.75;4071262;86;21036;-85
2022/08/07 06:05:41;;;;;;;7.10;5.80;;;;;;;16.17;100.00;99838.11;4070318;86;21488;-86
2022/08/07 06:11:44;;;;;;;6.65;5.72;;;;;;;16.15;100.00;99847.95;4047352;86;21138;-85
2022/08/07 06:17:46;;;;;;;6.47;5.87;;;;;;;16.14;100.00;99841.66;4032227;86;22024;-84
2022/08/07 06:23:49;;;;;;;7.55;4.85;;;;;;;16.14;100.00;99841.66;4029314;86;21082;-84
2022/08/07 06:29:51;;;;;;;6.28;5.67;;;;;;;16.11;100.00;99843.02;4062278;86;21759;-84
2022/08/07 06:35:53;;;;;;;7.47;5.22;;;;;;;16.07;100.00;99844.39;4033823;86;21057;-84
2022/08/07 06:42:17;;;;;;;7.40;5.78;;;;;;;16.11;100.00;99847.17;4039817;86;21623;-85
2022/08/07 06:48:27;;;;;;;7.92;5.62;;;;;;;16.08;100.00;99844.61;4057683;86;21084;-85
2022/08/07 06:54:30;;;;;;;6.80;5.62;;;;;;;16.16;100.00;99848.17;4031256;86;21061;-84
2022/08/07 07:00:38;;;;;;;8.13;5.97;;;;;;;16.24;100.00;99860.81;4039926;86;21135;-84
2022/08/07 07:06:39;;;;;;;7.75;6.45;;;;;;;16.33;100.00;99857.88;4043028;86;21012;-85
2022/08/07 07:12:53;;;;;;;10.65;6.05;;;;;;;16.43;100.00;99858.47;4065117;86;21993;-85
2022/08/07 07:19:00;;;;;;;10.32;5.90;;;;;;;16.53;100.00;99856.35;4071723;86;21575;-85
2022/08/07 07:25:05;;;;;;;7.58;6.10;;;;;;;16.58;100.00;99856.55;4089262;85;21071;-85
2022/08/07 07:31:21;;;;;;;6.50;4.75;;;;;;;16.69;100.00;99846.28;4077844;86;20974;-86
2022/08/07 07:37:24;;;;;;;4.80;3.98;;;;;;;16.76;100.00;99862.86;4083983;85;21105;-86
2022/08/07 07:43:28;;;;;;;6.37;4.40;;;;;;;16.82;100.00;99847.45;4081430;86;21003;-85
2022/08/07 07:49:32;;;;;;;5.22;3.80;;;;;;;16.84;100.00;99854.77;4130276;86;21417;-85
2022/08/07 07:55:35;;;;;;;5.65;3.50;;;;;;;16.91;100.00;99859.69;4035225;86;117217;-85
2022/08/07 08:01:42;;;;;;;6.50;3.80;;;;;;;16.95;100.00;99861.08;3981258;89;21043;-86
2022/08/07 08:07:46;;;;;;;5.12;2.67;;;;;;;17.01;100.00;99861.67;3914704;91;21102;-85
2022/08/07 08:13:48;;;;;;;6.72;2.25;;;;;;;17.12;100.00;99859.67;3974892;88;21007;-86
2022/08/07 08:19:55;;;;;;;3.98;2.33;;;;;;;17.26;100.00;99856.09;3972174;88;21104;-85
2022/08/07 08:32:29;;;;;;;5.47;2.35;;;;;;;17.49;100.00;99868.13;3945494;88;21091;-87
2022/08/07 08:38:35;;;;;;;4.25;2.33;;;;;;;17.55;97.53;99863.76;3969868;88;21079;-86
2022/08/07 08:45:01;;;;;;;11.88;4.65;;;;;;;17.75;98.13;99867.05;3917732;89;21126;-87
2022/08/07 08:51:37;;;;;;;4.10;1.60;;;;;;;18.01;97.52;99862.98;3950603;88;21075;-85
2022/08/07 08:58:04;;;;;;;6.70;2.05;;;;;;;18.28;96.48;99859.84;3911825;90;21137;-87
2022/08/07 09:04:37;;;;;;;3.08;1.72;;;;;;;18.51;95.72;99865.68;3911646;90;21114;-86
2022/08/07 09:11:25;;;;;;;7.35;1.77;;;;;;;18.54;94.00;99864.25;3896596;89;21099;-86
2022/08/07 09:18:27;;;;;;;2.83;1.57;;;;;;;18.49;92.35;99866.67;3854199;92;21064;-86
2022/08/07 09:24:59;;;;;;;2.95;1.85;;;;;;;18.46;89.82;99859.94;3943221;89;21169;-86
2022/08/07 09:31:42;;;;;;;3.30;1.80;;;;;;;18.58;89.45;99853.14;3939162;89;21032;-85
2022/08/07 09:38:21;;;;;;;;;;;;;;;;;;;;;
2022/08/07 09:51:24;;;;;;;4.00;1.40;;;;;;;19.50;85.43;99833.64;3841949;89;21631;-86
2022/08/07 09:58:07;;;;;;;5.33;1.67;;;;;;;20.29;84.18;99826.67;3846978;91;21180;-86
2022/08/07 10:04:26;;;;;;;3.75;1.67;;;;;;;21.20;84.06;99823.78;3908743;89;21667;-86
2022/08/07 10:11:16;;;;;;;5.80;1.32;;;;;;;21.71;81.19;99824.55;3917903;88;21670;-85
2022/08/07 10:17:51;;;;;;;2.45;1.40;;;;;;;21.79;76.83;99812.66;3866684;90;21090;-86
2022/08/07 10:23:59;;;;;;;2.50;1.20;;;;;;;21.77;78.85;99808.91;3926381;90;21015;-85
2022/08/07 10:30:38;;;;;;;1.62;1.25;;;;;;;21.77;77.71;99795.61;3815068;91;21078;-86
2022/08/07 10:37:21;;;;;;;1.10;1.00;;;;;;;21.99;70.97;99798.88;3709922;91;21389;-85
2022/08/07 10:43:45;;;;;;;3.27;1.20;;;;;;;21.84;74.34;99787.87;3840979;91;21549;-87
2022/08/07 10:49:51;;;;;;;4.00;1.02;;;;;;;22.18;73.67;99780.52;3835224;91;21081;-85
2022/08/07 10:56:16;;;;;;;;;;;;;;;22.38;72.92;99772.89;3843233;90;21226;-84
2022/08/07 11:03:06;;;;;;;2.72;1.07;;;;;;;22.18;70.59;99767.97;3951003;89;20522;-87
2022/08/07 11:09:19;;;;;;;1.80;1.00;;;;;;;22.04;68.87;99757.15;3920734;89;21637;-85
2022/08/07 11:15:24;;;;;;;1.82;1.02;;;;;;;21.90;69.99;99746.33;3857517;91;21127;-86
2022/08/07 11:21:54;;;;;;;3.43;0.90;;;;;;;21.77;69.79;99754.57;3910730;89;21072;-86
2022/08/07 11:28:30;;;;;;;4.28;1.00;;;;;;;21.67;69.90;99747.98;3930178;87;21084;-86
2022/08/07 11:34:47;;;;;;;4.35;0.90;;;;;;;21.58;69.43;99747.02;3954703;89;21148;-86
2022/08/07 11:48:10;;;;;;;3.52;0.93;;;;;;;21.44;68.38;99738.34;3926458;89;21022;-85
2022/08/07 11:54:36;;;;;;;2.87;1.20;;;;;;;21.42;68.67;99733.80;3934091;89;21468;-86
2022/08/07 12:01:15;;;;;;;2.10;0.80;;;;;;;21.44;68.21;99732.77;3933255;89;21588;-85
2022/08/07 12:07:46;;;;;;;3.75;1.20;;;;;;;21.48;67.91;99728.52;3932642;90;21056;-86
2022/08/07 12:14:09;;;;;;;2.10;0.90;;;;;;;21.64;67.76;99729.97;3960169;88;21028;-86
2022/08/07 12:20:22;;;;;;;3.47;1.20;;;;;;;21.69;67.22;99720.48;3969436;87;21062;-86
2022/08/07 12:26:41;;;;;;;3.05;1.10;;;;;;;21.68;67.17;99718.92;3969987;88;21066;-86
2022/08/07 12:33:07;;;;;;;2.47;0.80;;;;;;;21.66;66.77;99717.17;3969945;88;21063;-86
2022/08/07 12:39:10;;;;;;;2.50;0.90;;;;;;;21.67;66.40;99706.81;3970852;89;21016;-86
2022/08/07 12:45:22;;;;;;;1.42;1.05;;;;;;;21.73;65.93;99705.08;3972735;88;21662;-86
2022/08/07 12:51:27;;;;;;;1.50;0.90;;;;;;;21.67;65.37;99706.19;3973413;88;21043;-86
2022/08/07 12:57:34;;;;;;;1.67;1.02;;;;;;;21.78;65.28;99696.84;3972590;88;21023;-86
2022/08/07 13:03:43;;;;;;;;;;;;;;;21.90;64.74;99693.37;3971231;89;21051;-86
2022/08/07 13:10:12;;;;;;;4.22;1.07;;;;;;;21.91;64.20;99685.97;3901623;89;20202;-86
2022/08/07 13:16:30;;;;;;;3.30;1.10;;;;;;;21.87;64.09;99690.06;3906864;89;21087;-85
2022/08/07 13:23:06;;;;;;;3.08;1.07;;;;;;;21.83;63.48;99684.59;3944256;89;22002;-85
2022/08/07 13:29:43;;;;;;;3.20;1.15;;;;;;;21.88;63.07;99681.89;3941662;87;21134;-86
2022/08/07 13:35:54;;;;;;;2.85;1.10;;;;;;;21.70;62.93;99677.48;3973964;88;21059;-86
2022/08/07 13:41:56;;;;;;;2.72;0.80;;;;;;;21.85;63.84;99673.01;3958162;88;21075;-86
2022/08/07 13:48:03;;;;;;;1.98;1.00;;;;;;;21.80;62.80;99665.92;3961064;88;21084;-86
2022/08/07 13:54:13;;;;;;;3.50;1.50;;;;;;;21.82;62.86;99656.53;3946320;88;21081;-85
2022/08/07 14:00:16;;;;;;;1.92;0.80;;;;;;;21.78;60.84;99653.05;3945071;90;21088;-85
2022/08/07 14:06:20;;;;;;;1.40;0.80;;;;;;;21.79;62.22;99650.43;3949084;89;21084;-85
2022/08/07 14:12:44;;;;;;;1.70;1.10;;;;;;;21.84;62.35;99641.55;3878385;90;21015;-86
2022/08/07 14:18:49;;;;;;;1.82;0.80;;;;;;;21.86;61.94;99637.73;3850457;91;21064;-86
2022/08/07 14:24:59;;;;;;;2.37;0.90;;;;;;;21.91;62.00;99637.19;3847074;91;21364;-86
2022/08/07 14:31:04;;;;;;;1.35;0.80;;;;;;;21.89;61.89;99627.11;3937580;89;21016;-86
2022/08/07 14:37:10;;;;;;;2.45;1.20;;;;;;;21.94;62.10;99629.34;3849441;91;21084;-86
2022/08/07 14:43:16;;;;;;;5.42;1.45;;;;;;;21.86;61.85;99618.83;3910783;89;21119;-86
2022/08/07 14:49:20;;;;;;;2.97;0.93;;;;;;;21.74;61.36;99616.08;3910577;89;21032;-85
2022/08/07 14:55:32;;;;;;;3.20;1.50;;;;;;;21.52;59.97;99612.22;3911915;89;21770;-85
2022/08/07 15:01:37;;;;;;;2.52;0.80;;;;;;;21.61;59.83;99609.02;3908651;89;21175;-85
2022/08/07 15:07:43;;;;;;;2.40;1.00;;;;;;;21.63;60.11;99602.41;3907880;89;21101;-85
2022/08/07 15:13:52;;;;;;;2.13;0.70;;;;;;;21.65;61.10;99594.41;3929183;88;21570;-86
2022/08/07 15:19:59;;;;;;;2.52;1.35;;;;;;;21.59;61.02;99586.41;3950449;88;21067;-86
2022/08/07 15:26:02;;;;;;;2.12;0.90;;;;;;;21.53;59.59;99588.74;3949986;89;21108;-84
2022/08/07 15:32:05;;;;;;;2.42;1.10;;;;;;;21.35;58.32;99582.78;3952624;88;21839;-85
2022/08/07 15:38:07;;;;;;;2.30;0.90;;;;;;;21.21;58.73;99581.72;3918412;88;21112;-85
2022/08/07 15:44:13;;;;;;;0.90;0.55;;;;;;;21.18;59.08;99575.02;3891197;89;21828;-84
2022/08/07 15:50:17;;;;;;;0.98;0.72;;;;;;;21.14;58.72;99577.09;3959023;87;21126;-83
2022/08/07 15:56:25;;;;;;;3.80;1.00;;;;;;;20.99;59.69;99566.10;3960979;88;21167;-85
2022/08/07 16:02:37;;;;;;;2.02;0.98;;;;;;;20.92;60.35;99558.48;3935611;90;21080;-84
2022/08/07 16:08:42;;;;;;;2.65;1.12;;;;;;;20.80;59.29;99554.36;3963331;88;21549;-84
2022/08/07 16:15:19;;;;;;;2.62;1.10;;;;;;;20.71;59.51;99557.53;3984422;88;21063;-88
2022/08/07 16:21:37;;;;;;;2.08;0.85;;;;;;;20.72;59.25;99551.54;3952769;89;21416;-85
2022/08/07 16:27:48;;;;;;;1.92;0.70;;;;;;;20.68;60.44;99552.83;3953473;89;21000;-84
2022/08/07 16:33:53;;;;;;;2.47;0.98;;;;;;;20.56;60.64;99540.38;3840059;86;9999940;-84
2022/08/07 16:40:36;;;;;;;1.20;0.93;;;;;;;20.54;60.55;99541.41;3953874;88;20980;-84
2022/08/07 16:47:17;;;;;;;2.95;0.90;;;;;;;20.46;60.42;99540.56;3949302;90;21004;-85
2022/08/07 16:54:06;;;;;;;1.37;0.85;;;;;;;20.43;60.59;99541.42;3949228;90;21003;-85
2022/08/07 17:00:16;;;;;;;1.37;0.70;;;;;;;20.38;60.92;99539.93;3947795;89;21751;-85
2022/08/07 17:06:56;;;;;;;3.58;1.20;;;;;;;20.24;61.75;99545.77;3947265;89;20996;-85
2022/08/07 17:13:41;;;;;;;3.47;0.85;;;;;;;20.13;62.77;99540.42;3953550;88;21038;-85
2022/08/07 17:19:47;;;;;;;2.62;0.98;;;;;;;19.94;63.51;99543.91;3987360;88;21035;-85
2022/08/07 17:26:17;;;;;;;2.22;1.17;;;;;;;19.77;64.11;99544.22;3984474;87;20987;-85
2022/08/07 17:32:49;;;;;;;3.27;1.30;;;;;;;19.56;64.10;99545.98;3872443;88;9999713;-85
2022/08/07 17:39:11;;;;;;;3.92;1.45;;;;;;;19.45;64.66;99548.90;3988055;88;21102;-85
2022/08/07 17:45:20;;;;;;;4.55;1.45;;;;;;;19.34;67.16;99546.13;3980285;89;21023;-85
2022/08/07 17:51:36;;;;;;;3.87;2.42;;;;;;;19.21;66.76;99547.88;3956983;90;21071;-86
2022/08/07 17:58:01;;;;;;;3.98;2.65;;;;;;;19.05;66.40;99549.09;3954460;89;22008;-85
2022/08/07 18:04:31;;;;;;;9.93;3.60;;;;;;;18.91;66.51;99555.63;3956089;88;21894;-86
2022/08/07 18:10:56;;;;;;;5.58;2.47;;;;;;;18.74;66.86;99562.97;3947526;88;21019;-86
2022/08/07 18:17:06;;;;;;;3.17;2.12;;;;;;;18.43;67.25;99562.76;3825602;89;21127;-86
2022/08/07 18:23:12;;;;;;;4.47;1.90;;;;;;;18.15;68.19;99566.43;3931152;89;21171;-86
2022/08/07 18:29:22;;;;;;;3.85;2.37;;;;;;;17.97;68.77;99570.75;3815823;89;10000430;-86
2022/08/07 18:35:57;;;;;;;3.37;2.22;;;;;;;17.78;69.68;99574.67;3929448;89;21040;-85
2022/08/07 18:42:29;;;;;;;3.70;2.27;;;;;;;17.49;70.18;99578.30;3928250;90;21025;-85
2022/08/07 18:49:01;;;;;;;4.22;2.30;;;;;;;17.25;70.91;99583.36;3928442;89;21183;-85
2022/08/07 18:55:25;;;;;;;4.90;2.00;;;;;;;17.03;72.09;99587.44;3942394;89;21051;-85
2022/08/07 19:01:44;;;;;;;6.03;3.10;;;;;;;16.81;73.39;99587.34;3928478;89;21012;-85
2022/08/07 19:08:01;;;;;;;8.03;4.37;;;;;;;16.59;73.70;99592.19;3932668;89;22026;-85
2022/08/07 19:14:15;;;;;;;;;;;;;;;16.44;73.99;99594.81;3930191;89;21122;-85
2022/08/07 19:20:19;;;;;;;7.08;4.37;;;;;;;16.26;75.23;99590.47;3922265;89;20185;-85
2022/08/07 19:26:25;;;;;;;9.63;5.22;;;;;;;16.11;74.67;99595.25;3919179;89;21118;-85
2022/08/07 19:32:29;;;;;;;7.42;4.25;;;;;;;15.99;75.08;99596.25;3923329;90;21088;-85
2022/08/07 19:38:34;;;;;;;8.15;4.80;;;;;;;15.82;75.49;99601.97;3912727;89;21124;-85
2022/08/07 19:44:38;;;;;;;7.00;4.60;;;;;;;15.66;76.35;99604.33;3836039;91;21119;-85
2022/08/07 19:50:40;;;;;;;6.97;3.35;;;;;;;15.47;76.71;99613.00;3909625;91;21040;-85
2022/08/07 19:56:49;;;;;;;6.60;3.65;;;;;;;15.31;76.78;99613.34;3910506;89;21049;-85
2022/08/07 20:02:56;;;;;;;5.12;2.90;;;;;;;15.17;77.42;99622.17;3913480;89;21100;-85
2022/08/07 20:09:00;;;;;;;6.33;2.83;;;;;;;15.07;78.56;99622.34;3908085;89;21094;-85
2022/08/07 20:15:05;;;;;;;6.70;3.10;;;;;;;14.98;79.24;99627.44;3933280;87;21150;-85
2022/08/07 20:21:08;;;;;;;6.28;2.45;;;;;;;14.96;79.93;99624.27;3889455;90;21058;-85
2022/08/07 20:27:14;;;;;;;2.70;2.30;;;;;;;14.83;80.39;99637.42;3961912;88;21047;-85
2022/08/07 20:33:17;;;;;;;4.97;2.67;;;;;;;14.80;81.35;99639.58;4014161;88;21071;-85
2022/08/07 20:39:32;;;;;;;6.65;2.70;;;;;;;14.78;81.57;99643.30;3964511;88;21211;-85
2022/08/07 20:45:33;;;;;;;7.53;3.75;;;;;;;14.74;81.27;99644.66;3961180;88;21102;-85
2022/08/07 20:51:35;;;;;;;6.20;3.40;;;;;;;14.67;80.87;99650.73;3958031;88;21103;-85
2022/08/07 20:57:47;;;;;;;6.62;2.52;;;;;;;14.64;80.89;99652.30;3958185;88;22354;-85
2022/08/07 21:03:58;;;;;;;3.95;2.75;;;;;;;14.55;81.60;99655.20;3961284;88;21011;-85
2022/08/07 21:10:02;;;;;;;5.22;3.40;;;;;;;14.52;81.98;99659.49;3965544;88;21123;-85
2022/08/07 21:16:05;;;;;;;5.75;2.62;;;;;;;14.50;82.29;99654.17;3942233;88;21092;-85
2022/08/07 21:22:11;;;;;;;5.55;2.95;;;;;;;14.46;83.03;99651.97;3934156;89;21597;-85
2022/08/07 21:28:19;;;;;;;4.92;2.90;;;;;;;14.41;83.23;99649.61;3932288;89;21064;-85
2022/08/07 21:35:10;;;;;;;4.58;2.75;;;;;;;14.41;83.25;99652.36;3932326;89;21112;-85
2022/08/07 21:41:36;;;;;;;5.12;2.58;;;;;;;14.37;83.24;99653.70;3933128;89;21095;-84
2022/08/07 21:47:54;;;;;;;3.98;2.77;;;;;;;14.34;84.29;99651.72;3929876;88;21192;-84
2022/08/07 21:54:39;;;;;;;4.05;2.60;;;;;;;14.33;83.87;99652.11;3834306;91;21548;-85
2022/08/07 22:00:44;;;;;;;6.25;2.65;;;;;;;14.26;84.69;99644.59;3938330;89;21051;-85
2022/08/07 22:07:06;;;;;;;4.25;2.40;;;;;;;14.15;83.85;99656.08;3858146;91;21016;-85
2022/08/07 22:13:12;;;;;;;4.70;2.50;;;;;;;14.18;84.93;99660.24;3928728;89;21590;-85
2022/08/07 22:19:39;;;;;;;4.80;2.40;;;;;;;14.11;84.45;99660.17;3912652;88;21208;-85
2022/08/07 22:25:51;;;;;;;4.87;2.30;;;;;;;14.05;84.48;99657.58;3818822;92;21357;-85
2022/08/07 22:32:04;;;;;;;6.15;2.33;;;;;;;13.92;84.99;99649.41;3913017;89;21110;-84
2022/08/07 22:38:21;;;;;;;6.20;2.72;;;;;;;13.87;85.12;99652.53;3914000;88;21021;-84
2022/08/07 22:44:26;;;;;;;2.95;2.10;;;;;;;13.85;85.02;99647.98;3909400;89;21096;-84
2022/08/07 22:50:58;;;;;;;3.02;2.17;;;;;;;13.83;85.90;99653.07;3914207;89;21135;-84
2022/08/07 22:57:27;;;;;;;7.75;2.10;;;;;;;13.78;86.27;99649.29;3899372;89;22343;-84
2022/08/07 23:03:43;;;;;;;8.88;1.87;;;;;;;13.73;85.96;99648.86;3912436;89;21195;-84
2022/08/07 23:10:24;;;;;;;3.70;2.00;;;;;;;13.58;86.13;99654.02;3914551;89;21037;-84
2022/08/07 23:17:08;;;;;;;2.87;2.15;;;;;;;13.48;86.26;99644.52;3841492;91;21142;-84
2022/08/07 23:23:45;;;;;;;4.80;1.95;;;;;;;13.36;86.62;99642.02;3931460;89;21082;-84
2022/08/07 23:30:03;;;;;;;8.40;2.33;;;;;;;13.33;87.47;99644.15;3934178;89;21054;-84
2022/08/07 23:36:22;;;;;;;3.80;2.20;;;;;;;13.38;87.29;99639.69;3932833;89;21106;-84
2022/08/07 23:43:02;;;;;;;5.78;2.42;;;;;;;13.22;86.70;99636.38;3935679;89;21089;-84
2022/08/07 23:49:33;;;;;;;6.97;2.30;;;;;;;13.11;87.23;99641.56;3937599;89;21075;-85
2022/08/07 23:56:15;;;;;;;3.45;2.00;;;;;;;12.98;87.31;99642.95;3932348;89;22477;-85
